Time;durP1;ratioP1;P1;durP2;ratioP2;P2;SDS_P1;SDS_P2;PMS_P1;PMS_P2;Temp;Humidity;BMP_temperature;BMP_pressure;BME280_temperature;BME280_humidity;BME280_pressure;Samples;Min_cycle;Max_cycle;Signal;HPM_P1;HPM_P2
2023/02/16 00:00:58;;;;;;;33.50;23.02;;;;;;;-0.25;100.00;100834.91;10595146;28;20433;-77
2023/02/16 00:06:00;;;;;;;37.80;23.08;;;;;;;-0.20;100.00;100833.31;10594958;28;20048;-77
2023/02/16 00:16:23;;;;;;;36.53;22.67;;;;;;;-0.66;100.00;100836.44;10595799;28;20040;-77
2023/02/16 00:21:25;;;;;;;39.25;24.02;;;;;;;-0.58;100.00;100834.91;10594835;28;20043;-77
2023/02/16 00:26:30;;;;;;;39.20;23.98;;;;;;;-0.52;100.00;100838.53;10577523;28;20040;-77
2023/02/16 00:31:31;;;;;;;36.83;24.38;;;;;;;-0.63;100.00;100846.81;10594994;28;20042;-77
2023/02/16 00:36:33;;;;;;;40.53;23.88;;;;;;;-0.69;100.00;100842.38;10595966;28;20408;-77
2023/02/16 00:41:50;;;;;;;39.35;23.85;;;;;;;-0.53;100.00;100835.94;10576286;28;20063;-76
2023/02/16 00:46:52;;;;;;;36.45;23.15;;;;;;;-0.27;100.00;100827.13;10576911;28;20050;-77
2023/02/16 00:51:54;;;;;;;35.55;23.40;;;;;;;-0.27;100.00;100829.72;10577210;28;20493;-77
2023/02/16 00:56:56;;;;;;;36.05;22.48;;;;;;;-0.66;100.00;100837.31;10574618;28;20146;-76
2023/02/16 01:01:58;;;;;;;34.75;22.80;;;;;;;-0.84;100.00;100827.38;10593097;28;20055;-77
2023/02/16 01:12:20;;;;;;;33.50;21.55;;;;;;;-0.76;100.00;100825.84;10537122;28;20044;-73
2023/02/16 01:17:23;;;;;;;37.50;21.33;;;;;;;-1.06;100.00;100817.28;10543891;28;20040;-73
2023/02/16 01:22:32;;;;;;;30.95;20.67;;;;;;;-1.07;100.00;100818.97;10520113;28;20044;-74
2023/02/16 01:27:36;;;;;;;39.30;23.47;;;;;;;-1.05;100.00;100808.72;10542845;28;20040;-74
2023/02/16 01:32:39;;;;;;;30.52;20.88;;;;;;;-1.36;100.00;100818.16;10520283;28;20524;-74
2023/02/16 01:37:41;;;;;;;36.80;21.73;;;;;;;-1.45;100.00;100807.59;10523536;28;20040;-74
2023/02/16 01:42:50;;;;;;;33.83;21.33;;;;;;;-1.36;100.00;100802.69;10546072;28;20040;-74
2023/02/16 01:48:00;;;;;;;35.63;21.50;;;;;;;-1.14;100.00;100798.13;10523769;28;20036;-75
2023/02/16 01:53:22;;;;;;;34.25;21.27;;;;;;;-1.27;100.00;100802.94;10524444;28;20146;-75
2023/02/16 01:58:44;;;;;;;38.78;22.25;;;;;;;-1.05;100.00;100798.38;10543360;28;20028;-75
2023/02/16 02:09:19;;;;;;;37.33;22.25;;;;;;;-1.49;100.00;100787.69;10524870;28;20500;-75
2023/02/16 02:14:31;;;;;;;43.50;22.92;;;;;;;-1.63;100.00;100786.44;10543481;28;20097;-74
2023/02/16 02:20:08;;;;;;;34.70;23.20;;;;;;;-1.76;100.00;100790.34;10519006;28;20040;-75
2023/02/16 02:25:16;;;;;;;;;;;;;;;-1.75;100.00;100797.25;10512888;28;20539;-74
2023/02/16 02:30:39;;;;;;;29.98;20.70;;;;;;;-1.42;100.00;100799.03;10517149;28;20404;-74
2023/02/16 02:35:57;;;;;;;32.28;21.33;;;;;;;-1.49;100.00;100792.84;10520130;28;20485;-74
2023/02/16 02:41:21;;;;;;;32.95;21.38;;;;;;;-1.57;100.00;100791.75;10539899;28;20044;-75
2023/02/16 02:46:29;;;;;;;36.13;21.67;;;;;;;-1.60;100.00;100787.38;10516326;28;20068;-75
2023/02/16 02:51:32;;;;;;;34.33;21.73;;;;;;;-1.63;100.00;100776.13;10517649;28;20094;-74
2023/02/16 03:02:05;;;;;;;45.50;22.98;;;;;;;-1.97;100.00;100761.34;10522276;28;20044;-74
2023/02/16 03:07:08;;;;;;;36.90;22.08;;;;;;;-1.72;100.00;100765.53;10522200;28;20042;-74
2023/02/16 03:33:40;;;;;;;31.80;19.67;;;;;;;-1.64;100.00;100780.41;10539637;28;20466;-74
2023/02/16 03:38:42;;;;;;;36.03;20.48;;;;;;;-1.54;100.00;100787.56;10546245;28;20396;-74
2023/02/16 03:43:43;;;;;;;32.33;20.65;;;;;;;-1.71;100.00;100786.19;10546387;28;20044;-74
2023/02/16 03:48:45;;;;;;;37.33;20.83;;;;;;;-1.54;100.00;100789.28;10546424;28;20094;-74
2023/02/16 03:53:47;;;;;;;40.45;22.38;;;;;;;-1.78;100.00;100798.00;10548356;28;20060;-74
2023/02/16 03:58:48;;;;;;;30.65;20.40;;;;;;;-1.52;100.00;100788.47;10546119;28;20044;-75
2023/02/16 04:03:50;;;;;;;35.15;22.73;;;;;;;-1.61;100.00;100775.31;10545803;28;20044;-74
2023/02/16 04:08:53;;;;;;;31.33;20.52;;;;;;;-1.59;100.00;100780.53;10545760;28;20036;-74
2023/02/16 04:13:55;;;;;;;29.60;20.27;;;;;;;-1.76;100.00;100789.47;10547723;28;20399;-75
2023/02/16 04:18:56;;;;;;;29.83;21.05;;;;;;;-1.76;100.00;100781.75;10545012;28;20038;-74
2023/02/16 04:23:58;;;;;;;36.75;21.42;;;;;;;-1.64;100.00;100785.56;10525742;28;20052;-75
2023/02/16 04:29:00;;;;;;;26.50;20.13;;;;;;;-1.94;100.00;100784.63;10544825;28;20039;-75
2023/02/16 04:34:02;;;;;;;33.25;21.65;;;;;;;-1.80;100.00;100778.19;10544886;28;20055;-75
2023/02/16 04:39:04;;;;;;;33.35;21.05;;;;;;;-2.00;100.00;100774.13;10545150;28;20485;-75
2023/02/16 04:44:05;;;;;;;34.67;20.00;;;;;;;-1.86;100.00;100771.16;10544656;28;20496;-74
2023/02/16 04:49:07;;;;;;;41.25;21.95;;;;;;;-1.92;100.00;100755.50;10545028;28;20114;-74
2023/02/16 04:54:09;;;;;;;37.78;21.30;;;;;;;-1.96;100.00;100766.53;10544703;28;20063;-74
2023/02/16 04:59:11;;;;;;;25.52;20.13;;;;;;;-2.13;100.00;100762.56;10546213;28;20040;-74
2023/02/16 05:04:13;;;;;;;35.38;21.80;;;;;;;-2.04;100.00;100763.75;10544751;28;20044;-74
2023/02/16 05:09:15;;;;;;;38.08;21.70;;;;;;;-1.80;100.00;100773.91;10519326;28;20068;-75
2023/02/16 05:14:41;;;;;;;41.00;20.20;;;;;;;-1.96;100.00;100769.09;10518005;28;20123;-73
2023/02/16 05:19:46;;;;;;;32.78;20.08;;;;;;;-1.69;100.00;100769.06;10544311;28;20036;-74
2023/02/16 05:24:48;;;;;;;32.25;20.52;;;;;;;-1.77;100.00;100773.13;10542787;28;20044;-74
2023/02/16 05:29:50;;;;;;;35.55;20.27;;;;;;;-1.65;100.00;100780.34;10542230;28;20114;-75
2023/02/16 05:34:52;;;;;;;34.45;21.25;;;;;;;-1.84;100.00;100787.53;10542054;28;20078;-74
2023/02/16 05:39:54;;;;;;;29.45;18.70;;;;;;;-1.98;100.00;100782.78;10543142;28;20055;-77
2023/02/16 05:44:55;;;;;;;31.92;21.08;;;;;;;-1.86;100.00;100789.19;10542323;28;20043;-74
2023/02/16 05:49:57;;;;;;;40.47;20.95;;;;;;;-1.86;100.00;100793.44;10522156;28;20046;-75
2023/02/16 05:54:59;;;;;;;40.03;20.98;;;;;;;-1.88;100.00;100795.13;10542777;28;20094;-75
2023/02/16 06:00:02;;;;;;;38.42;21.13;;;;;;;-1.86;100.00;100788.28;10521397;28;20116;-74
2023/02/16 06:05:05;;;;;;;35.65;20.30;;;;;;;-1.95;100.00;100799.19;10543442;28;20130;-75
2023/02/16 06:10:07;;;;;;;38.50;21.45;;;;;;;-2.04;100.00;100804.97;10543394;28;20465;-77
2023/02/16 06:15:10;;;;;;;43.95;21.20;;;;;;;-2.05;100.00;100799.75;10541277;28;20413;-76
2023/02/16 06:20:12;;;;;;;30.77;19.35;;;;;;;-2.13;100.00;100798.63;10540744;28;20070;-75
2023/02/16 06:25:14;;;;;;;36.78;21.17;;;;;;;-1.93;100.00;100791.53;10542924;28;20040;-76
2023/02/16 06:30:16;;;;;;;42.30;20.45;;;;;;;-1.96;100.00;100792.28;10540543;28;20040;-76
2023/02/16 06:35:17;;;;;;;39.20;21.35;;;;;;;-1.99;100.00;100793.91;10519035;28;20037;-76
2023/02/16 06:40:20;;;;;;;38.88;21.17;;;;;;;-2.09;100.00;100803.03;10507458;28;20051;-76
2023/02/16 06:45:22;;;;;;;38.40;20.40;;;;;;;-2.21;100.00;100797.50;10480128;28;20521;-76
2023/02/16 06:50:23;;;;;;;33.45;20.42;;;;;;;-1.84;100.00;100794.38;10508924;28;20039;-76
2023/02/16 06:55:25;;;;;;;36.97;21.73;;;;;;;-1.70;100.00;100792.22;10539911;28;20050;-76
2023/02/16 07:00:28;;;;;;;37.85;20.92;;;;;;;-1.43;100.00;100790.44;10539696;28;20054;-76
2023/02/16 07:05:30;;;;;;;33.22;20.38;;;;;;;-1.54;100.00;100789.28;10539857;28;20048;-76
2023/02/16 07:10:32;;;;;;;39.42;21.13;;;;;;;-1.60;100.00;100787.38;10580634;22;20056;-81
2023/02/16 07:15:49;;;;;;;35.35;22.02;;;;;;;-1.32;100.00;100783.03;10497569;28;20041;-80
2023/02/16 07:20:51;;;;;;;38.63;21.50;;;;;;;-1.12;100.00;100768.94;10512255;28;20041;-81
2023/02/16 07:25:53;;;;;;;31.90;19.83;;;;;;;-1.33;100.00;100770.94;10525429;28;20041;-79
2023/02/16 07:30:55;;;;;;;33.35;20.02;;;;;;;-1.32;100.00;100772.72;10537427;28;20044;-80
2023/02/16 07:35:57;;;;;;;30.67;21.45;;;;;;;-1.22;100.00;100785.03;10544870;28;20028;-80
2023/02/16 07:40:59;;;;;;;42.17;23.40;;;;;;;-1.02;100.00;100799.34;10530061;28;20104;-80
2023/02/16 07:46:01;;;;;;;38.35;22.15;;;;;;;-0.83;100.00;100807.59;10519497;28;20048;-81
2023/02/16 07:51:03;;;;;;;42.10;24.35;;;;;;;-0.75;100.00;100798.34;10523690;28;20032;-81
2023/02/16 07:56:05;;;;;;;35.85;22.48;;;;;;;-0.57;100.00;100792.78;10544469;28;20052;-80
2023/02/16 08:01:09;;;;;;;37.30;21.15;;;;;;;-0.36;100.00;100792.41;10517094;28;20047;-81
2023/02/16 08:06:12;;;;;;;35.22;21.38;;;;;;;0.03;100.00;100794.19;10529541;28;20060;-81
2023/02/16 08:11:16;;;;;;;32.53;21.02;;;;;;;0.22;100.00;100799.84;10505219;28;20075;-81
2023/02/16 08:16:23;;;;;;;38.88;23.05;;;;;;;0.49;100.00;100809.91;10524224;28;20052;-80
2023/02/16 08:21:31;;;;;;;31.65;20.13;;;;;;;0.60;100.00;100809.25;10503302;28;20417;-79
2023/02/16 08:26:36;;;;;;;37.03;21.77;;;;;;;0.71;99.87;100803.47;10502704;28;20043;-80
2023/02/16 08:31:38;;;;;;;29.65;19.83;;;;;;;0.75;99.38;100801.78;10522163;28;20041;-80
2023/02/16 08:36:43;;;;;;;27.70;19.92;;;;;;;1.39;93.12;100799.56;10489570;28;20048;-79
2023/02/16 08:41:47;;;;;;;31.65;20.67;;;;;;;1.31;93.64;100796.84;10521617;28;20036;-79
2023/02/16 08:46:49;;;;;;;32.78;20.25;;;;;;;1.35;94.15;100790.88;10533670;28;20059;-80
2023/02/16 08:51:54;;;;;;;24.95;18.85;;;;;;;1.80;90.71;100787.31;10535616;28;20067;-81
2023/02/16 08:56:58;;;;;;;29.67;19.90;;;;;;;2.18;88.79;100785.28;10535676;28;20062;-80
2023/02/16 09:02:00;;;;;;;23.90;19.17;;;;;;;2.17;89.88;100785.25;10541481;28;20045;-81
2023/02/16 09:07:02;;;;;;;31.00;19.92;;;;;;;2.39;88.55;100782.13;10505360;28;20049;-80
2023/02/16 09:12:04;;;;;;;35.33;21.05;;;;;;;2.47;89.03;100779.63;10523386;28;20052;-81
2023/02/16 09:17:06;;;;;;;31.77;20.45;;;;;;;2.67;88.80;100772.97;10506162;28;20048;-81
2023/02/16 09:22:07;;;;;;;25.40;19.73;;;;;;;2.93;89.15;100772.41;10504887;28;20126;-80
2023/02/16 09:27:10;;;;;;;33.65;21.75;;;;;;;3.44;84.46;100778.97;10504085;28;20048;-80
2023/02/16 09:32:12;;;;;;;32.03;21.63;;;;;;;3.67;83.16;100772.22;10503201;28;20101;-79
2023/02/16 09:37:15;;;;;;;38.65;21.92;;;;;;;3.50;85.45;100769.50;10523163;28;20059;-81
2023/02/16 09:42:23;;;;;;;33.60;20.75;;;;;;;3.92;83.39;100762.88;10517708;28;20029;-79
2023/02/16 09:47:30;;;;;;;42.03;23.40;;;;;;;4.09;81.60;100765.59;10525842;28;20036;-79
2023/02/16 09:52:39;;;;;;;32.15;22.98;;;;;;;3.94;82.14;100765.47;10522245;28;20037;-80
2023/02/16 09:57:54;;;;;;;40.10;22.52;;;;;;;3.82;84.44;100766.28;10503466;28;20056;-79
2023/02/16 10:03:30;;;;;;;30.70;22.77;;;;;;;4.07;82.86;100766.44;10510542;28;20075;-79
2023/02/16 10:08:44;;;;;;;32.58;22.20;;;;;;;4.13;83.11;100761.28;10502902;28;20044;-81
2023/02/16 10:13:52;;;;;;;39.42;23.10;;;;;;;4.11;82.91;100769.06;10503515;28;20071;-81
2023/02/16 10:18:57;;;;;;;36.92;23.52;;;;;;;4.20;82.81;100766.53;10520866;28;20048;-81
2023/02/16 10:24:04;;;;;;;29.48;21.92;;;;;;;4.53;80.98;100775.38;10522044;28;20045;-81
2023/02/16 10:29:11;;;;;;;36.67;22.77;;;;;;;4.97;79.05;100764.28;10519939;28;20033;-79
2023/02/16 10:34:21;;;;;;;30.20;21.80;;;;;;;5.33;77.61;100750.44;10511559;28;20049;-78
2023/02/16 10:39:34;;;;;;;30.58;22.80;;;;;;;5.89;74.75;100757.41;10495705;28;20075;-78
2023/02/16 10:44:42;;;;;;;38.13;22.85;;;;;;;6.65;71.89;100752.88;10528983;28;20045;-78
2023/02/16 10:49:46;;;;;;;27.52;21.48;;;;;;;7.23;70.15;100744.72;10475016;28;20049;-78
2023/02/16 10:54:48;;;;;;;24.23;21.10;;;;;;;7.88;67.99;100721.47;10477542;28;20061;-78
2023/02/16 10:59:50;;;;;;;22.15;19.20;;;;;;;8.86;63.65;100718.63;10491104;28;20044;-78
2023/02/16 11:04:53;;;;;;;24.60;20.83;;;;;;;9.32;61.67;100716.19;10492188;28;20044;-79
2023/02/16 11:09:59;;;;;;;25.20;22.33;;;;;;;9.72;58.51;100727.78;10492622;28;20037;-79
2023/02/16 11:15:17;;;;;;;30.73;22.00;;;;;;;9.53;59.06;100724.59;10509543;28;20547;-79
2023/02/16 11:20:30;;;;;;;29.25;20.80;;;;;;;10.15;57.75;100721.75;10514144;28;20032;-79
2023/02/16 11:25:32;;;;;;;21.83;19.48;;;;;;;10.68;57.99;100719.84;10474640;28;20102;-80
2023/02/16 11:30:40;;;;;;;15.55;13.98;;;;;;;11.53;51.88;100694.16;10512939;28;20445;-79
2023/02/16 11:35:44;;;;;;;14.93;13.40;;;;;;;12.08;52.06;100698.00;10492827;28;20052;-80
2023/02/16 11:40:51;;;;;;;22.00;18.95;;;;;;;12.61;49.57;100690.34;10495926;28;20036;-79
2023/02/16 11:46:18;;;;;;;18.45;16.75;;;;;;;13.14;48.92;100685.19;10511820;28;20048;-78
2023/02/16 11:51:33;;;;;;;14.20;12.95;;;;;;;13.44;48.37;100682.50;10492719;28;20067;-80
2023/02/16 11:56:35;;;;;;;17.02;13.57;;;;;;;14.15;46.92;100673.00;10496927;28;20489;-79
2023/02/16 12:02:07;;;;;;;15.73;14.30;;;;;;;13.89;46.97;100679.22;10501794;28;20049;-80
2023/02/16 12:07:27;;;;;;;21.45;19.10;;;;;;;13.75;48.07;100674.41;10450098;28;20056;-79
2023/02/16 12:12:47;;;;;;;15.75;14.45;;;;;;;12.94;49.47;100668.28;10503798;28;20047;-81
2023/02/16 12:18:01;;;;;;;16.70;15.25;;;;;;;12.67;49.06;100670.84;10526455;28;20059;-80
2023/02/16 12:23:17;;;;;;;16.85;14.48;;;;;;;12.66;47.16;100661.22;10519689;28;20051;-78
2023/02/16 12:28:40;;;;;;;16.10;14.27;;;;;;;12.35;47.53;100650.69;10510775;28;20079;-81
2023/02/16 12:34:00;;;;;;;18.52;16.05;;;;;;;11.94;48.71;100647.47;10497612;28;20045;-79
2023/02/16 12:39:11;;;;;;;17.30;15.77;;;;;;;11.89;48.90;100646.72;10500645;28;20040;-78
2023/02/16 12:44:23;;;;;;;16.15;14.55;;;;;;;11.93;48.06;100635.22;10495769;28;20055;-79
2023/02/16 12:49:48;;;;;;;16.40;14.73;;;;;;;11.85;49.44;100630.16;10516646;28;20383;-79
2023/02/16 12:55:09;;;;;;;15.77;14.05;;;;;;;11.43;50.24;100624.25;10517685;28;20055;-79
2023/02/16 13:00:32;;;;;;;15.48;13.93;;;;;;;11.38;50.32;100623.50;10481577;28;20047;-80
2023/02/16 13:05:36;;;;;;;16.83;15.02;;;;;;;11.47;52.71;100622.41;10497201;28;20063;-80
2023/02/16 13:11:04;;;;;;;17.05;15.18;;;;;;;11.40;51.61;100613.78;10538400;22;20056;-78
2023/02/16 13:16:11;;;;;;;17.33;15.73;;;;;;;11.13;52.06;100610.09;10522727;28;20056;-78
2023/02/16 13:21:42;;;;;;;16.20;14.60;;;;;;;11.35;50.06;100600.75;10560404;28;20040;-78
2023/02/16 13:27:17;;;;;;;16.65;14.95;;;;;;;11.53;50.33;100595.91;10533908;28;20036;-78
2023/02/16 13:32:47;;;;;;;16.88;15.18;;;;;;;11.22;49.79;100604.59;10530991;28;20121;-79
2023/02/16 13:37:58;;;;;;;17.02;14.52;;;;;;;11.47;48.55;100586.41;10550299;28;20044;-79
2023/02/16 13:43:29;;;;;;;17.15;15.45;;;;;;;11.59;47.86;100593.09;10537486;28;20099;-78
2023/02/16 13:48:46;;;;;;;18.10;14.10;;;;;;;11.57;47.34;100594.91;10540434;28;20043;-79
2023/02/16 13:53:51;;;;;;;14.80;13.43;;;;;;;11.70;46.53;100598.06;10530947;28;20044;-79
2023/02/16 13:58:53;;;;;;;15.90;12.45;;;;;;;11.56;46.54;100596.69;10546114;28;20047;-77
2023/02/16 14:03:54;;;;;;;15.35;13.80;;;;;;;11.39;46.86;100596.25;10529196;28;20040;-80
2023/02/16 14:09:11;;;;;;;19.60;12.27;;;;;;;11.55;45.71;100604.59;10551481;28;20040;-79
2023/02/16 14:14:51;;;;;;;13.00;11.27;;;;;;;11.27;46.63;100612.38;10551050;28;20044;-79
2023/02/16 14:19:53;;;;;;;16.42;12.73;;;;;;;10.98;47.75;100610.44;10382670;28;20058;-79
2023/02/16 14:24:58;;;;;;;15.65;13.43;;;;;;;11.22;47.27;100612.47;10380729;28;20066;-80
2023/02/16 14:30:02;;;;;;;14.50;13.00;;;;;;;11.15;48.33;100612.66;10383929;28;20068;-79
2023/02/16 14:35:14;;;;;;;13.98;12.25;;;;;;;11.04;48.65;100610.31;10363656;28;20097;-79
2023/02/16 14:40:37;;;;;;;11.95;10.75;;;;;;;10.70;49.79;100624.25;10363212;28;20089;-79
2023/02/16 14:45:48;;;;;;;12.35;11.18;;;;;;;10.89;48.62;100621.19;10379225;28;20057;-79
2023/02/16 14:51:27;;;;;;;16.73;12.02;;;;;;;10.44;49.96;100624.81;10405896;28;20044;-80
2023/02/16 14:56:58;;;;;;;12.90;11.57;;;;;;;10.13;52.05;100623.72;10546676;28;20089;-78
2023/02/16 15:02:20;;;;;;;12.80;11.50;;;;;;;10.16;52.09;100621.03;10528566;28;20036;-78
2023/02/16 15:07:24;;;;;;;30.77;23.05;;;;;;;9.99;54.52;100618.75;10545617;28;20440;-79
2023/02/16 15:12:31;;;;;;;37.28;25.20;;;;;;;9.45;56.91;100624.16;10552169;28;20062;-78
2023/02/16 15:17:44;;;;;;;32.38;26.23;;;;;;;9.40;57.26;100618.97;10548301;28;20048;-78
2023/02/16 15:22:55;;;;;;;42.67;26.00;;;;;;;8.65;60.12;100608.84;10527890;28;20052;-79
2023/02/16 15:28:15;;;;;;;39.33;27.77;;;;;;;8.62;60.26;100609.72;10546599;28;20040;-78
2023/02/16 15:33:23;;;;;;;46.83;26.58;;;;;;;8.11;62.41;100603.44;10529603;28;20036;-79
2023/02/16 15:38:27;;;;;;;43.42;27.65;;;;;;;7.90;64.01;100607.19;10515683;28;20486;-78
2023/02/16 15:43:34;;;;;;;38.22;26.95;;;;;;;7.56;65.49;100605.78;10506625;28;20037;-79
2023/02/16 15:48:37;;;;;;;55.80;29.17;;;;;;;7.17;67.92;100603.53;10487787;28;20049;-78
2023/02/16 15:53:51;;;;;;;46.05;28.65;;;;;;;7.55;66.88;100606.66;10506936;28;20037;-78
2023/02/16 15:58:54;;;;;;;46.75;28.88;;;;;;;6.94;69.36;100609.81;10510988;28;20047;-78
2023/02/16 16:03:56;;;;;;;50.65;28.73;;;;;;;6.62;71.26;100606.59;10511870;28;20040;-78
2023/02/16 16:08:58;;;;;;;48.38;29.73;;;;;;;6.34;72.80;100606.75;10510933;28;20044;-78
2023/02/16 16:14:04;;;;;;;42.70;30.40;;;;;;;6.18;73.80;100607.69;10511088;28;20044;-79
2023/02/16 16:19:15;;;;;;;48.13;29.30;;;;;;;6.40;74.04;100606.72;10495610;28;20052;-79
2023/02/16 16:24:37;;;;;;;50.08;31.58;;;;;;;6.27;72.80;100607.66;10514820;28;20375;-78
2023/02/16 16:29:42;;;;;;;54.58;30.48;;;;;;;5.88;74.63;100613.88;10494302;28;20482;-77
2023/02/16 16:34:45;;;;;;;52.85;30.73;;;;;;;5.76;74.98;100607.84;10506766;28;20489;-77
2023/02/16 16:40:20;;;;;;;50.03;31.42;;;;;;;5.42;76.78;100612.25;10551637;28;20063;-77
2023/02/16 16:45:35;;;;;;;52.90;31.63;;;;;;;5.28;77.71;100612.28;10523201;28;20056;-78
2023/02/16 16:50:38;;;;;;;59.40;32.42;;;;;;;5.05;78.77;100612.28;10535333;28;20052;-78
2023/02/16 16:55:40;;;;;;;60.13;31.25;;;;;;;4.92;78.90;100605.34;10550172;28;20044;-78
2023/02/16 17:00:44;;;;;;;52.38;32.25;;;;;;;4.96;79.36;100601.88;10550725;28;20032;-78
2023/02/16 17:05:46;;;;;;;56.85;32.42;;;;;;;4.86;79.62;100599.25;10549588;28;20052;-78
2023/02/16 17:10:48;;;;;;;67.00;35.60;;;;;;;4.60;80.95;100597.47;10531413;28;20056;-79
2023/02/16 17:16:01;;;;;;;60.17;34.47;;;;;;;4.67;81.58;100601.84;10551308;28;20049;-77
2023/02/16 17:21:04;;;;;;;59.65;34.38;;;;;;;4.46;82.09;100605.25;10531669;28;20056;-79
2023/02/16 17:26:06;;;;;;;61.42;34.45;;;;;;;4.39;82.46;100598.31;10513812;28;20051;-79
2023/02/16 17:31:09;;;;;;;81.63;38.35;;;;;;;4.28;83.80;100603.47;10532296;28;20055;-79
2023/02/16 17:36:14;;;;;;;75.65;36.47;;;;;;;4.07;84.54;100593.00;10534907;28;20080;-81
2023/02/16 17:41:28;;;;;;;84.07;44.88;;;;;;;3.98;86.30;100585.16;10534753;28;20066;-79
2023/02/16 17:46:31;;;;;;;66.85;34.28;;;;;;;4.24;85.63;100580.06;10548460;28;20116;-80
2023/02/16 17:51:35;;;;;;;57.25;33.25;;;;;;;4.25;84.47;100586.97;10531874;28;20509;-79
2023/02/16 17:56:40;;;;;;;72.15;36.38;;;;;;;4.01;85.22;100580.84;10550646;28;20074;-80
2023/02/16 18:01:43;;;;;;;74.97;39.47;;;;;;;3.92;85.61;100582.56;10532680;28;20032;-80
2023/02/16 18:06:45;;;;;;;82.88;44.00;;;;;;;3.74;86.33;100581.59;10550827;28;20446;-80
2023/02/16 18:11:49;;;;;;;83.10;39.83;;;;;;;3.69;87.68;100598.06;10532809;28;20043;-79
2023/02/16 18:16:52;;;;;;;77.78;37.50;;;;;;;3.79;87.43;100597.22;10554164;28;20048;-79
2023/02/16 18:21:54;;;;;;;74.03;37.75;;;;;;;3.71;87.48;100585.91;10532779;28;20074;-79
2023/02/16 18:26:56;;;;;;;71.78;37.63;;;;;;;3.57;88.31;100593.66;10547951;28;20048;-80
2023/02/16 18:32:02;;;;;;;72.43;37.00;;;;;;;3.66;88.26;100598.03;10548481;28;20512;-79
2023/02/16 18:37:03;;;;;;;72.65;38.65;;;;;;;3.64;87.23;100599.75;10533082;28;20047;-79
2023/02/16 18:42:05;;;;;;;83.97;38.53;;;;;;;3.53;87.77;100603.16;10548973;28;20077;-79
2023/02/16 18:47:10;;;;;;;78.60;40.05;;;;;;;3.53;88.09;100603.16;10530703;28;20044;-79
2023/02/16 18:52:12;;;;;;;75.05;37.22;;;;;;;3.51;88.24;100601.41;10548375;28;20048;-80
2023/02/16 18:57:14;;;;;;;75.30;38.38;;;;;;;3.65;86.60;100604.09;10536532;28;20063;-81
2023/02/16 19:02:15;;;;;;;76.03;37.97;;;;;;;3.60;87.42;100608.41;10549803;28;20048;-81
2023/02/16 19:07:18;;;;;;;70.72;38.40;;;;;;;3.44;88.97;100621.28;10556836;28;20046;-80
2023/02/16 19:12:19;;;;;;;80.28;40.08;;;;;;;3.32;89.52;100631.63;10552927;28;20048;-80
2023/02/16 19:17:21;;;;;;;79.03;40.25;;;;;;;3.43;88.94;100629.94;10527536;28;20044;-78
2023/02/16 19:22:23;;;;;;;81.70;41.63;;;;;;;3.53;88.49;100623.94;10592559;22;20482;-76
2023/02/16 19:27:25;;;;;;;74.43;38.78;;;;;;;3.58;88.57;100610.09;10495988;28;20049;-76
2023/02/16 19:32:28;;;;;;;78.07;38.33;;;;;;;3.44;89.26;100610.03;10521475;28;20104;-75
2023/02/16 19:37:30;;;;;;;81.30;40.60;;;;;;;3.45;89.78;100598.75;10525787;28;20066;-76
2023/02/16 19:42:32;;;;;;;81.15;41.05;;;;;;;3.41;90.79;100600.50;10541470;28;20043;-76
2023/02/16 19:47:34;;;;;;;82.07;38.55;;;;;;;3.56;90.00;100588.44;10556669;28;20115;-76
2023/02/16 19:52:37;;;;;;;81.70;41.42;;;;;;;3.76;89.04;100594.59;10540714;28;20130;-78
2023/02/16 19:57:39;;;;;;;78.10;40.95;;;;;;;3.73;88.70;100592.00;10544551;28;20047;-77
2023/02/16 20:02:43;;;;;;;75.85;39.97;;;;;;;3.61;89.46;100591.94;10540091;28;20097;-77
2023/02/16 20:07:45;;;;;;;32.15;25.33;;;;;;;4.30;94.61;100580.09;10560453;28;20064;-76
2023/02/16 20:12:47;;;;;;;21.90;19.75;;;;;;;5.70;88.63;100578.28;10562036;28;20040;-76
2023/02/16 20:17:58;;;;;;;19.40;17.70;;;;;;;7.17;78.78;100573.06;10541176;28;20143;-77
2023/02/16 20:23:01;;;;;;;18.73;17.13;;;;;;;7.38;77.21;100568.50;10530500;28;20044;-76
2023/02/16 20:28:03;;;;;;;18.33;17.00;;;;;;;7.75;74.85;100566.34;10548732;28;20048;-76
2023/02/16 20:33:05;;;;;;;19.23;17.65;;;;;;;7.89;73.73;100567.03;10548254;28;20036;-76
2023/02/16 20:38:06;;;;;;;20.00;18.00;;;;;;;7.95;73.10;100576.56;10540376;28;20040;-76
2023/02/16 20:43:09;;;;;;;17.50;15.70;;;;;;;7.97;72.71;100586.16;10475176;28;20041;-77
2023/02/16 20:48:11;;;;;;;18.38;17.08;;;;;;;7.96;72.86;100576.53;10507232;28;20111;-77
2023/02/16 20:53:13;;;;;;;18.58;16.88;;;;;;;8.11;71.85;100574.63;10493930;28;20048;-78
2023/02/16 20:58:16;;;;;;;17.67;16.23;;;;;;;8.24;70.93;100576.19;10490319;28;20052;-77
2023/02/16 21:03:17;;;;;;;17.08;15.60;;;;;;;8.30;71.06;100557.78;10492535;28;20041;-77
2023/02/16 21:08:19;;;;;;;15.98;14.68;;;;;;;8.42;70.74;100557.63;10488384;28;20486;-77
2023/02/16 21:13:21;;;;;;;16.85;15.55;;;;;;;8.25;71.81;100568.31;10506759;28;20048;-76
2023/02/16 21:18:26;;;;;;;17.00;15.65;;;;;;;8.42;71.66;100555.03;10506560;28;20044;-77
2023/02/16 21:23:28;;;;;;;15.43;14.23;;;;;;;8.56;70.70;100547.81;10510460;28;20446;-77
2023/02/16 21:28:30;;;;;;;15.52;14.32;;;;;;;8.58;70.37;100543.41;10488795;28;20040;-78
2023/02/16 21:33:32;;;;;;;15.00;13.45;;;;;;;8.54;70.54;100541.75;10490325;28;20060;-75
2023/02/16 21:38:35;;;;;;;13.75;12.38;;;;;;;8.48;71.31;100533.09;10482513;28;20044;-76
2023/02/16 21:43:37;;;;;;;14.82;13.75;;;;;;;8.54;71.03;100533.00;10529323;28;20054;-74
2023/02/16 21:48:51;;;;;;;14.00;12.80;;;;;;;8.56;70.94;100526.00;10544155;28;20071;-75
2023/02/16 21:53:54;;;;;;;12.80;11.68;;;;;;;8.47;71.49;100526.13;10543353;28;20123;-74
2023/02/16 21:58:56;;;;;;;12.23;11.23;;;;;;;8.66;70.38;100524.09;10542893;28;20048;-75
2023/02/16 22:03:59;;;;;;;12.93;11.73;;;;;;;8.65;70.62;100517.97;10543912;28;20499;-75
2023/02/16 22:09:05;;;;;;;13.05;11.75;;;;;;;8.59;70.46;100518.94;10526342;28;20128;-76
2023/02/16 22:14:07;;;;;;;11.70;10.70;;;;;;;8.76;69.80;100505.53;10542145;28;20094;-73
2023/02/16 22:19:14;;;;;;;11.93;10.93;;;;;;;8.75;69.95;100508.19;10541769;28;20465;-74
2023/02/16 22:24:17;;;;;;;11.40;10.50;;;;;;;8.85;69.11;100501.91;10522960;28;20036;-73
2023/02/16 22:29:18;;;;;;;12.25;11.15;;;;;;;8.98;68.52;100500.78;10542658;28;20101;-74
2023/02/16 22:34:21;;;;;;;11.38;10.27;;;;;;;9.02;68.50;100497.22;10540835;28;20115;-74
2023/02/16 22:39:23;;;;;;;11.30;10.20;;;;;;;9.05;68.61;100493.69;10540697;28;20067;-75
2023/02/16 22:44:24;;;;;;;11.35;10.13;;;;;;;9.00;69.09;100493.78;10522199;28;20131;-74
2023/02/16 22:49:26;;;;;;;11.13;10.02;;;;;;;8.81;70.37;100488.00;10543098;28;20046;-75
2023/02/16 22:54:28;;;;;;;11.65;10.60;;;;;;;9.05;69.36;100491.94;10541314;28;20044;-74
2023/02/16 22:59:29;;;;;;;11.30;10.45;;;;;;;9.09;69.05;100472.63;10522765;28;20043;-73
2023/02/16 23:04:31;;;;;;;11.30;10.23;;;;;;;8.92;70.03;100464.22;10540108;28;20040;-74
2023/02/16 23:09:33;;;;;;;10.60;9.70;;;;;;;8.95;70.21;100458.06;10541371;28;20052;-74
2023/02/16 23:14:36;;;;;;;11.35;10.32;;;;;;;8.74;71.57;100443.56;10540298;28;20062;-74
2023/02/16 23:19:39;;;;;;;10.43;9.10;;;;;;;8.80;70.79;100453.94;10539838;28;20048;-73
2023/02/16 23:24:40;;;;;;;10.68;9.77;;;;;;;8.70;71.82;100455.00;10540222;28;20431;-75
2023/02/16 23:29:42;;;;;;;10.52;9.55;;;;;;;8.87;70.80;100446.84;10540605;28;20097;-74
2023/02/16 23:34:44;;;;;;;9.55;8.65;;;;;;;8.90;70.45;100438.91;10543983;28;20052;-74
2023/02/16 23:39:45;;;;;;;12.23;9.82;;;;;;;8.76;71.33;100441.78;10540057;28;20050;-74
2023/02/16 23:44:47;;;;;;;11.00;10.07;;;;;;;8.91;70.60;100427.53;10521970;28;20036;-74